Warren, Ohio
Current Conditions -  °F | °C
As of 8:51 PM on Wednesday 22 Oct 2014 (Local Time) from KYNG Reporting Station
Few Clouds Few Clouds  
Wind Chill: 42°   Ceiling: Unl
Heat Index: 42°   Visibility: 10mi
Dew Point: 39°   Wind: 3mph
Humidity: 89%   Direction: 330°NNW
Pressure: 30.21"   Gusts: NA
Location:  41.24°N, 80.81°W
Report Text: KYNG 230051Z 33003KT 10SM FEW017 06/04 A3021 RMK AO2 SLP237 T00560039
Loading
Personal Weather Stations






























Interactive Weather Map New forecast layout! Learn more

10-Day Weather Forecast

Advertisements
Track Severe Weather on mobile